sensor_id;sensor_type;location;lat;lon;timestamp;pressure;altitude;pressure_sealevel;temperature;humidity
76464;BME280;65301;46.666;20.110;2024-02-28T00:02:42;100891.50;;;10.99;71.45
76464;BME280;65301;46.666;20.110;2024-02-28T00:05:44;100883.09;;;10.97;71.63
76464;BME280;65301;46.666;20.110;2024-02-28T00:08:47;100883.38;;;10.95;71.56
76464;BME280;65301;46.666;20.110;2024-02-28T00:11:49;100881.75;;;10.86;71.80
76464;BME280;65301;46.666;20.110;2024-02-28T00:14:51;100886.06;;;10.82;72.77
76464;BME280;65301;46.666;20.110;2024-02-28T00:17:54;100885.06;;;10.78;72.44
76464;BME280;65301;46.666;20.110;2024-02-28T00:20:56;100886.06;;;10.68;73.38
76464;BME280;65301;46.666;20.110;2024-02-28T00:23:58;100883.63;;;10.71;73.02
76464;BME280;65301;46.666;20.110;2024-02-28T00:27:00;100881.50;;;10.60;73.93
76464;BME280;65301;46.666;20.110;2024-02-28T00:30:05;100876.44;;;10.50;74.58
76464;BME280;65301;46.666;20.110;2024-02-28T00:33:08;100885.69;;;10.61;73.82
76464;BME280;65301;46.666;20.110;2024-02-28T00:36:10;100885.03;;;10.55;74.56
76464;BME280;65301;46.666;20.110;2024-02-28T00:39:12;100881.63;;;10.55;73.96
76464;BME280;65301;46.666;20.110;2024-02-28T00:42:14;100872.00;;;10.59;73.68
76464;BME280;65301;46.666;20.110;2024-02-28T00:45:15;100874.66;;;10.59;73.62
76464;BME280;65301;46.666;20.110;2024-02-28T00:48:18;100871.00;;;10.68;73.31
76464;BME280;65301;46.666;20.110;2024-02-28T00:51:19;100879.25;;;10.67;73.33
76464;BME280;65301;46.666;20.110;2024-02-28T00:54:21;100881.41;;;10.65;74.25
76464;BME280;65301;46.666;20.110;2024-02-28T00:57:25;100883.56;;;10.63;74.56
76464;BME280;65301;46.666;20.110;2024-02-28T01:00:27;100880.81;;;10.54;74.78
76464;BME280;65301;46.666;20.110;2024-02-28T01:03:29;100880.41;;;10.61;74.50
76464;BME280;65301;46.666;20.110;2024-02-28T01:06:31;100881.31;;;10.56;75.02
76464;BME280;65301;46.666;20.110;2024-02-28T01:09:33;100890.50;;;10.59;75.18
76464;BME280;65301;46.666;20.110;2024-02-28T01:12:35;100890.09;;;10.65;75.23
76464;BME280;65301;46.666;20.110;2024-02-28T01:15:39;100884.06;;;10.65;75.47
76464;BME280;65301;46.666;20.110;2024-02-28T01:18:41;100880.25;;;10.57;75.26
76464;BME280;65301;46.666;20.110;2024-02-28T01:21:42;100882.00;;;10.62;75.48
76464;BME280;65301;46.666;20.110;2024-02-28T01:24:44;100880.13;;;10.62;75.71
76464;BME280;65301;46.666;20.110;2024-02-28T01:27:46;100881.00;;;10.71;75.73
76464;BME280;65301;46.666;20.110;2024-02-28T01:30:48;100887.97;;;10.67;75.17
76464;BME280;65301;46.666;20.110;2024-02-28T01:33:50;100884.59;;;10.76;74.86
76464;BME280;65301;46.666;20.110;2024-02-28T01:36:52;100880.88;;;10.77;75.21
76464;BME280;65301;46.666;20.110;2024-02-28T01:39:54;100888.81;;;10.77;74.82
76464;BME280;65301;46.666;20.110;2024-02-28T01:43:22;100883.91;;;10.84;75.10
76464;BME280;65301;46.666;20.110;2024-02-28T01:46:28;100884.38;;;10.86;73.40
76464;BME280;65301;46.666;20.110;2024-02-28T01:49:30;100882.94;;;10.80;74.17
76464;BME280;65301;46.666;20.110;2024-02-28T01:52:32;100885.06;;;10.78;74.71
76464;BME280;65301;46.666;20.110;2024-02-28T01:55:37;100887.75;;;10.64;75.36
76464;BME280;65301;46.666;20.110;2024-02-28T01:58:39;100890.09;;;10.65;74.70
76464;BME280;65301;46.666;20.110;2024-02-28T02:01:41;100887.66;;;10.69;75.67
76464;BME280;65301;46.666;20.110;2024-02-28T02:04:43;100888.53;;;10.64;75.13
76464;BME280;65301;46.666;20.110;2024-02-28T02:07:45;100885.31;;;10.67;75.05
76464;BME280;65301;46.666;20.110;2024-02-28T02:10:48;100886.38;;;10.66;74.45
76464;BME280;65301;46.666;20.110;2024-02-28T02:13:51;100881.41;;;10.65;74.27
76464;BME280;65301;46.666;20.110;2024-02-28T02:16:53;100875.94;;;10.61;75.25
76464;BME280;65301;46.666;20.110;2024-02-28T02:19:54;100876.75;;;10.48;75.21
76464;BME280;65301;46.666;20.110;2024-02-28T02:22:57;100882.31;;;10.47;75.25
76464;BME280;65301;46.666;20.110;2024-02-28T02:25:59;100881.44;;;10.38;76.33
76464;BME280;65301;46.666;20.110;2024-02-28T02:29:00;100883.00;;;10.39;76.37
76464;BME280;65301;46.666;20.110;2024-02-28T02:32:02;100880.84;;;10.41;77.61
76464;BME280;65301;46.666;20.110;2024-02-28T02:35:05;100884.06;;;10.38;76.84
76464;BME280;65301;46.666;20.110;2024-02-28T02:38:06;100894.13;;;10.49;76.25
76464;BME280;65301;46.666;20.110;2024-02-28T02:41:08;100896.19;;;10.52;75.95
76464;BME280;65301;46.666;20.110;2024-02-28T02:44:10;100892.66;;;10.57;75.64
76464;BME280;65301;46.666;20.110;2024-02-28T02:47:12;100900.59;;;10.57;75.57
76464;BME280;65301;46.666;20.110;2024-02-28T02:50:14;100900.78;;;10.60;75.48
76464;BME280;65301;46.666;20.110;2024-02-28T02:53:15;100902.53;;;10.65;75.49
76464;BME280;65301;46.666;20.110;2024-02-28T02:56:17;100901.75;;;10.64;75.79
76464;BME280;65301;46.666;20.110;2024-02-28T02:59:19;100906.34;;;10.59;75.81
76464;BME280;65301;46.666;20.110;2024-02-28T03:02:23;100912.81;;;10.66;75.60
76464;BME280;65301;46.666;20.110;2024-02-28T03:05:24;100918.66;;;10.63;75.22
76464;BME280;65301;46.666;20.110;2024-02-28T03:08:26;100918.09;;;10.66;75.21
76464;BME280;65301;46.666;20.110;2024-02-28T03:11:28;100912.69;;;10.71;75.01
76464;BME280;65301;46.666;20.110;2024-02-28T03:14:30;100908.69;;;10.74;75.36
76464;BME280;65301;46.666;20.110;2024-02-28T03:17:32;100910.53;;;10.73;74.94
76464;BME280;65301;46.666;20.110;2024-02-28T03:20:34;100918.34;;;10.79;76.19
76464;BME280;65301;46.666;20.110;2024-02-28T03:23:36;100921.88;;;10.74;76.67
76464;BME280;65301;46.666;20.110;2024-02-28T03:26:37;100916.41;;;10.84;76.21
76464;BME280;65301;46.666;20.110;2024-02-28T03:29:39;100910.44;;;10.79;76.67
76464;BME280;65301;46.666;20.110;2024-02-28T03:32:41;100925.13;;;10.85;76.59
76464;BME280;65301;46.666;20.110;2024-02-28T03:35:43;100922.47;;;10.85;76.38
76464;BME280;65301;46.666;20.110;2024-02-28T03:38:45;100917.66;;;10.87;76.01
76464;BME280;65301;46.666;20.110;2024-02-28T03:41:47;100924.31;;;10.84;75.94
76464;BME280;65301;46.666;20.110;2024-02-28T03:44:48;100933.72;;;10.77;76.74
76464;BME280;65301;46.666;20.110;2024-02-28T03:47:50;100936.38;;;10.77;76.75
76464;BME280;65301;46.666;20.110;2024-02-28T03:50:52;100931.41;;;10.75;77.23
76464;BME280;65301;46.666;20.110;2024-02-28T03:53:54;100935.09;;;10.74;77.12
76464;BME280;65301;46.666;20.110;2024-02-28T03:56:55;100933.25;;;10.75;76.84
76464;BME280;65301;46.666;20.110;2024-02-28T03:59:57;100934.03;;;10.75;76.40
76464;BME280;65301;46.666;20.110;2024-02-28T04:02:59;100937.25;;;10.72;76.31
76464;BME280;65301;46.666;20.110;2024-02-28T04:06:01;100942.81;;;10.70;76.81
76464;BME280;65301;46.666;20.110;2024-02-28T04:09:03;100938.06;;;10.73;76.60
76464;BME280;65301;46.666;20.110;2024-02-28T04:12:05;100941.97;;;10.75;76.87
76464;BME280;65301;46.666;20.110;2024-02-28T04:15:07;100947.53;;;10.73;76.81
76464;BME280;65301;46.666;20.110;2024-02-28T04:18:12;100954.59;;;10.64;77.21
76464;BME280;65301;46.666;20.110;2024-02-28T04:21:14;100950.19;;;10.60;77.72
76464;BME280;65301;46.666;20.110;2024-02-28T04:24:16;100954.00;;;10.67;78.06
76464;BME280;65301;46.666;20.110;2024-02-28T04:27:18;100955.53;;;10.68;77.64
76464;BME280;65301;46.666;20.110;2024-02-28T04:30:20;100951.16;;;10.64;78.61
76464;BME280;65301;46.666;20.110;2024-02-28T04:33:22;100960.03;;;10.68;79.29
76464;BME280;65301;46.666;20.110;2024-02-28T04:36:24;100958.78;;;10.65;78.47
76464;BME280;65301;46.666;20.110;2024-02-28T04:39:26;100959.19;;;10.73;78.53
76464;BME280;65301;46.666;20.110;2024-02-28T04:42:28;100950.66;;;10.76;79.53
76464;BME280;65301;46.666;20.110;2024-02-28T04:45:30;100953.13;;;10.72;78.45
76464;BME280;65301;46.666;20.110;2024-02-28T04:48:31;100953.28;;;10.76;78.91
76464;BME280;65301;46.666;20.110;2024-02-28T04:51:34;100958.94;;;10.83;80.61
76464;BME280;65301;46.666;20.110;2024-02-28T04:54:35;100963.19;;;10.84;82.20
76464;BME280;65301;46.666;20.110;2024-02-28T04:57:37;100966.41;;;10.81;79.21
76464;BME280;65301;46.666;20.110;2024-02-28T05:00:39;100974.81;;;10.83;78.68
76464;BME280;65301;46.666;20.110;2024-02-28T05:03:41;100975.13;;;10.81;79.43
76464;BME280;65301;46.666;20.110;2024-02-28T05:06:43;100972.84;;;10.88;79.10
76464;BME280;65301;46.666;20.110;2024-02-28T05:09:45;100975.00;;;10.86;79.06
76464;BME280;65301;46.666;20.110;2024-02-28T05:12:47;100972.28;;;10.91;80.00
76464;BME280;65301;46.666;20.110;2024-02-28T05:15:49;100977.06;;;10.89;79.86
76464;BME280;65301;46.666;20.110;2024-02-28T05:18:50;100972.75;;;10.93;79.48
76464;BME280;65301;46.666;20.110;2024-02-28T05:21:52;100976.84;;;10.99;78.72
76464;BME280;65301;46.666;20.110;2024-02-28T05:24:54;100981.94;;;10.96;79.38
76464;BME280;65301;46.666;20.110;2024-02-28T05:27:56;100992.13;;;10.89;79.62
76464;BME280;65301;46.666;20.110;2024-02-28T05:30:58;100995.75;;;10.79;78.97
76464;BME280;65301;46.666;20.110;2024-02-28T05:34:01;101002.41;;;10.77;79.29
76464;BME280;65301;46.666;20.110;2024-02-28T05:37:03;101006.03;;;10.81;79.07
76464;BME280;65301;46.666;20.110;2024-02-28T05:40:07;101014.53;;;10.78;78.71
76464;BME280;65301;46.666;20.110;2024-02-28T05:43:09;101009.38;;;10.86;79.11
76464;BME280;65301;46.666;20.110;2024-02-28T05:46:11;101004.97;;;10.82;78.43
76464;BME280;65301;46.666;20.110;2024-02-28T05:49:12;101006.25;;;10.84;78.86
76464;BME280;65301;46.666;20.110;2024-02-28T05:52:14;101008.31;;;10.87;78.77
76464;BME280;65301;46.666;20.110;2024-02-28T05:55:17;101007.78;;;10.85;78.70
76464;BME280;65301;46.666;20.110;2024-02-28T05:58:19;101009.25;;;10.91;79.28
76464;BME280;65301;46.666;20.110;2024-02-28T06:01:21;101009.38;;;10.86;79.72
76464;BME280;65301;46.666;20.110;2024-02-28T06:04:23;101013.47;;;10.92;79.14
76464;BME280;65301;46.666;20.110;2024-02-28T06:07:25;101013.47;;;10.92;79.08
76464;BME280;65301;46.666;20.110;2024-02-28T06:10:27;101020.69;;;11.00;79.58
76464;BME280;65301;46.666;20.110;2024-02-28T06:13:30;101023.56;;;11.04;79.33
76464;BME280;65301;46.666;20.110;2024-02-28T06:16:33;101018.44;;;11.07;80.01
76464;BME280;65301;46.666;20.110;2024-02-28T06:19:36;101021.94;;;11.16;79.49
76464;BME280;65301;46.666;20.110;2024-02-28T06:22:38;101018.91;;;11.23;79.36
76464;BME280;65301;46.666;20.110;2024-02-28T06:25:40;101025.66;;;11.29;78.68
76464;BME280;65301;46.666;20.110;2024-02-28T06:28:45;101034.94;;;11.40;78.74
76464;BME280;65301;46.666;20.110;2024-02-28T06:31:51;101037.75;;;11.44;78.62
76464;BME280;65301;46.666;20.110;2024-02-28T06:34:53;101040.28;;;11.49;78.78
76464;BME280;65301;46.666;20.110;2024-02-28T06:37:55;101043.00;;;11.57;79.25
76464;BME280;65301;46.666;20.110;2024-02-28T06:40:57;101044.28;;;11.60;78.17
76464;BME280;65301;46.666;20.110;2024-02-28T06:43:59;101050.25;;;11.65;78.19
76464;BME280;65301;46.666;20.110;2024-02-28T06:47:00;101049.44;;;11.78;77.41
76464;BME280;65301;46.666;20.110;2024-02-28T06:50:06;101054.19;;;11.90;76.77
76464;BME280;65301;46.666;20.110;2024-02-28T06:53:08;101050.28;;;11.87;76.92
76464;BME280;65301;46.666;20.110;2024-02-28T06:56:10;101055.50;;;12.01;75.18
76464;BME280;65301;46.666;20.110;2024-02-28T06:59:12;101052.47;;;12.08;74.73
76464;BME280;65301;46.666;20.110;2024-02-28T07:02:14;101049.63;;;12.26;75.58
76464;BME280;65301;46.666;20.110;2024-02-28T07:05:16;101050.09;;;12.28;75.46
76464;BME280;65301;46.666;20.110;2024-02-28T07:08:21;101050.06;;;12.20;74.11
76464;BME280;65301;46.666;20.110;2024-02-28T07:11:24;101046.41;;;12.38;75.61
76464;BME280;65301;46.666;20.110;2024-02-28T07:14:26;101054.13;;;12.56;72.88
76464;BME280;65301;46.666;20.110;2024-02-28T07:17:29;101063.59;;;12.49;72.51
76464;BME280;65301;46.666;20.110;2024-02-28T07:20:42;101065.19;;;12.58;72.81
76464;BME280;65301;46.666;20.110;2024-02-28T07:24:03;101055.81;;;12.52;73.75
76464;BME280;65301;46.666;20.110;2024-02-28T07:27:07;101067.09;;;12.58;72.63
76464;BME280;65301;46.666;20.110;2024-02-28T07:30:10;101079.56;;;12.66;71.79
76464;BME280;65301;46.666;20.110;2024-02-28T07:33:14;101078.31;;;12.63;71.85
76464;BME280;65301;46.666;20.110;2024-02-28T07:36:15;101074.72;;;12.59;72.60
76464;BME280;65301;46.666;20.110;2024-02-28T07:39:17;101070.16;;;12.82;71.08
76464;BME280;65301;46.666;20.110;2024-02-28T07:42:20;101075.13;;;12.84;71.95
76464;BME280;65301;46.666;20.110;2024-02-28T07:45:24;101081.09;;;12.98;70.86
76464;BME280;65301;46.666;20.110;2024-02-28T07:48:26;101087.56;;;13.14;69.56
76464;BME280;65301;46.666;20.110;2024-02-28T07:51:28;101084.31;;;13.17;70.30
76464;BME280;65301;46.666;20.110;2024-02-28T07:54:30;101082.91;;;13.19;69.98
76464;BME280;65301;46.666;20.110;2024-02-28T07:57:32;101080.16;;;13.59;69.33
76464;BME280;65301;46.666;20.110;2024-02-28T08:00:35;101080.47;;;13.57;67.99
76464;BME280;65301;46.666;20.110;2024-02-28T08:03:37;101080.31;;;13.45;67.25
76464;BME280;65301;46.666;20.110;2024-02-28T08:06:40;101089.97;;;13.41;67.10
76464;BME280;65301;46.666;20.110;2024-02-28T08:09:42;101090.16;;;13.45;67.18
76464;BME280;65301;46.666;20.110;2024-02-28T08:12:44;101098.72;;;13.33;67.59
76464;BME280;65301;46.666;20.110;2024-02-28T08:15:46;101094.66;;;13.53;66.94
76464;BME280;65301;46.666;20.110;2024-02-28T08:18:48;101098.59;;;13.64;66.55
76464;BME280;65301;46.666;20.110;2024-02-28T08:21:50;101091.75;;;13.88;66.69
76464;BME280;65301;46.666;20.110;2024-02-28T08:24:52;101091.25;;;14.03;65.09
76464;BME280;65301;46.666;20.110;2024-02-28T08:27:53;101094.56;;;14.00;64.65
76464;BME280;65301;46.666;20.110;2024-02-28T08:30:55;101097.81;;;14.06;63.92
76464;BME280;65301;46.666;20.110;2024-02-28T08:33:57;101098.59;;;13.89;64.57
76464;BME280;65301;46.666;20.110;2024-02-28T08:36:59;101106.84;;;14.39;64.09
76464;BME280;65301;46.666;20.110;2024-02-28T08:40:01;101100.13;;;14.50;63.15
76464;BME280;65301;46.666;20.110;2024-02-28T08:43:03;101101.75;;;15.10;62.04
76464;BME280;65301;46.666;20.110;2024-02-28T08:46:05;101102.53;;;15.10;60.03
76464;BME280;65301;46.666;20.110;2024-02-28T08:49:07;101098.38;;;14.92;61.84
76464;BME280;65301;46.666;20.110;2024-02-28T08:52:10;101106.63;;;15.37;60.93
76464;BME280;65301;46.666;20.110;2024-02-28T08:55:12;101101.84;;;15.22;60.92
76464;BME280;65301;46.666;20.110;2024-02-28T08:58:14;101099.53;;;15.50;60.04
76464;BME280;65301;46.666;20.110;2024-02-28T09:01:16;101111.22;;;15.78;59.75
76464;BME280;65301;46.666;20.110;2024-02-28T09:04:19;101104.13;;;16.47;55.77
76464;BME280;65301;46.666;20.110;2024-02-28T09:07:20;101099.78;;;17.00;54.87
76464;BME280;65301;46.666;20.110;2024-02-28T09:10:23;101105.84;;;17.49;53.79
76464;BME280;65301;46.666;20.110;2024-02-28T09:13:28;101099.31;;;17.34;52.73
76464;BME280;65301;46.666;20.110;2024-02-28T09:16:29;101098.84;;;17.68;53.19
76464;BME280;65301;46.666;20.110;2024-02-28T09:19:31;101096.06;;;18.48;51.23
76464;BME280;65301;46.666;20.110;2024-02-28T09:22:33;101110.41;;;17.48;52.36
76464;BME280;65301;46.666;20.110;2024-02-28T09:25:36;101111.44;;;17.19;52.86
76464;BME280;65301;46.666;20.110;2024-02-28T09:28:38;101112.13;;;16.80;54.83
76464;BME280;65301;46.666;20.110;2024-02-28T09:31:40;101102.03;;;16.41;56.06
76464;BME280;65301;46.666;20.110;2024-02-28T09:34:42;101113.22;;;16.79;55.51
76464;BME280;65301;46.666;20.110;2024-02-28T09:37:44;101109.56;;;16.84;54.53
76464;BME280;65301;46.666;20.110;2024-02-28T09:40:46;101103.31;;;17.40;54.31
76464;BME280;65301;46.666;20.110;2024-02-28T09:43:51;101112.53;;;17.67;51.93
76464;BME280;65301;46.666;20.110;2024-02-28T09:46:53;101116.13;;;17.86;52.39
76464;BME280;65301;46.666;20.110;2024-02-28T09:49:57;101106.97;;;18.43;51.33
76464;BME280;65301;46.666;20.110;2024-02-28T09:53:00;101113.44;;;19.36;50.41
76464;BME280;65301;46.666;20.110;2024-02-28T09:56:11;101106.16;;;19.52;48.71
76464;BME280;65301;46.666;20.110;2024-02-28T09:59:15;101108.81;;;19.52;47.82
76464;BME280;65301;46.666;20.110;2024-02-28T10:02:17;101110.13;;;18.60;49.87
76464;BME280;65301;46.666;20.110;2024-02-28T10:05:22;101118.00;;;17.98;51.51
76464;BME280;65301;46.666;20.110;2024-02-28T10:08:28;101120.59;;;18.38;50.96
76464;BME280;65301;46.666;20.110;2024-02-28T10:11:30;101115.97;;;18.50;49.98
76464;BME280;65301;46.666;20.110;2024-02-28T10:14:32;101104.69;;;18.73;50.77
76464;BME280;65301;46.666;20.110;2024-02-28T10:17:34;101109.16;;;19.00;49.62
76464;BME280;65301;46.666;20.110;2024-02-28T10:20:36;101107.47;;;19.42;49.43
76464;BME280;65301;46.666;20.110;2024-02-28T10:23:39;101106.88;;;19.33;49.77
76464;BME280;65301;46.666;20.110;2024-02-28T10:26:44;101101.09;;;19.85;47.15
76464;BME280;65301;46.666;20.110;2024-02-28T10:29:46;101099.59;;;20.07;46.30
76464;BME280;65301;46.666;20.110;2024-02-28T10:32:49;101104.44;;;20.85;45.70
76464;BME280;65301;46.666;20.110;2024-02-28T10:35:52;101102.69;;;20.96;44.75
76464;BME280;65301;46.666;20.110;2024-02-28T10:38:55;101107.63;;;20.94;44.14
76464;BME280;65301;46.666;20.110;2024-02-28T10:41:59;101094.72;;;21.03;43.58
76464;BME280;65301;46.666;20.110;2024-02-28T10:45:02;101093.47;;;22.12;42.64
76464;BME280;65301;46.666;20.110;2024-02-28T10:48:22;101092.19;;;22.36;41.23
76464;BME280;65301;46.666;20.110;2024-02-28T10:51:26;101090.25;;;22.36;40.67
76464;BME280;65301;46.666;20.110;2024-02-28T10:54:29;101096.16;;;23.00;40.82
76464;BME280;65301;46.666;20.110;2024-02-28T10:57:32;101096.13;;;21.46;42.10
76464;BME280;65301;46.666;20.110;2024-02-28T11:00:36;101096.56;;;22.14;41.28
76464;BME280;65301;46.666;20.110;2024-02-28T11:03:39;101080.53;;;21.58;43.52
76464;BME280;65301;46.666;20.110;2024-02-28T11:09:54;101094.06;;;21.95;41.86
76464;BME280;65301;46.666;20.110;2024-02-28T11:12:57;101084.56;;;21.42;43.01
76464;BME280;65301;46.666;20.110;2024-02-28T11:16:09;101094.13;;;21.69;42.77
76464;BME280;65301;46.666;20.110;2024-02-28T11:19:21;101096.44;;;22.00;41.66
76464;BME280;65301;46.666;20.110;2024-02-28T11:22:29;101088.22;;;22.67;41.57
76464;BME280;65301;46.666;20.110;2024-02-28T11:25:31;101090.41;;;21.47;42.23
76464;BME280;65301;46.666;20.110;2024-02-28T11:28:33;101093.81;;;20.24;45.54
76464;BME280;65301;46.666;20.110;2024-02-28T11:31:35;101098.22;;;20.16;45.67
76464;BME280;65301;46.666;20.110;2024-02-28T11:34:37;101101.06;;;21.14;44.37
76464;BME280;65301;46.666;20.110;2024-02-28T11:37:45;101096.69;;;21.88;43.01
76464;BME280;65301;46.666;20.110;2024-02-28T11:40:49;101088.13;;;22.16;43.39
76464;BME280;65301;46.666;20.110;2024-02-28T11:43:51;101095.06;;;21.83;42.43
76464;BME280;65301;46.666;20.110;2024-02-28T11:46:53;101099.22;;;21.18;43.64
76464;BME280;65301;46.666;20.110;2024-02-28T11:49:58;101087.31;;;20.70;45.43
76464;BME280;65301;46.666;20.110;2024-02-28T11:53:01;101087.06;;;21.27;44.23
76464;BME280;65301;46.666;20.110;2024-02-28T11:56:04;101087.81;;;21.58;43.51
76464;BME280;65301;46.666;20.110;2024-02-28T11:59:15;101079.09;;;21.64;43.40
76464;BME280;65301;46.666;20.110;2024-02-28T12:02:18;101074.41;;;21.02;43.57
76464;BME280;65301;46.666;20.110;2024-02-28T12:05:22;101081.56;;;20.94;44.30
76464;BME280;65301;46.666;20.110;2024-02-28T12:08:25;101076.81;;;21.37;43.44
76464;BME280;65301;46.666;20.110;2024-02-28T12:11:31;101070.22;;;21.31;43.41
76464;BME280;65301;46.666;20.110;2024-02-28T12:14:36;101067.38;;;21.20;43.50
76464;BME280;65301;46.666;20.110;2024-02-28T12:17:42;101068.13;;;20.04;46.06
76464;BME280;65301;46.666;20.110;2024-02-28T12:20:44;101065.88;;;20.06;45.89
76464;BME280;65301;46.666;20.110;2024-02-28T12:23:47;101061.75;;;20.12;46.52
76464;BME280;65301;46.666;20.110;2024-02-28T12:26:52;101059.78;;;20.09;46.62
76464;BME280;65301;46.666;20.110;2024-02-28T12:29:54;101058.00;;;20.16;47.61
76464;BME280;65301;46.666;20.110;2024-02-28T12:32:56;101061.22;;;20.93;44.92
76464;BME280;65301;46.666;20.110;2024-02-28T12:35:58;101059.91;;;21.06;44.82
76464;BME280;65301;46.666;20.110;2024-02-28T12:39:03;101061.75;;;21.29;44.24
76464;BME280;65301;46.666;20.110;2024-02-28T12:42:07;101057.03;;;21.22;44.36
76464;BME280;65301;46.666;20.110;2024-02-28T12:45:10;101049.72;;;21.49;43.76
76464;BME280;65301;46.666;20.110;2024-02-28T12:48:17;101051.41;;;22.34;42.97
76464;BME280;65301;46.666;20.110;2024-02-28T12:51:39;101049.13;;;22.36;42.45
76464;BME280;65301;46.666;20.110;2024-02-28T12:54:55;101049.63;;;22.08;41.62
76464;BME280;65301;46.666;20.110;2024-02-28T12:57:58;101046.47;;;21.66;42.40
76464;BME280;65301;46.666;20.110;2024-02-28T13:01:02;101044.47;;;22.33;41.76
76464;BME280;65301;46.666;20.110;2024-02-28T13:04:05;101033.28;;;22.78;40.48
76464;BME280;65301;46.666;20.110;2024-02-28T13:07:06;101037.78;;;23.18;39.93
76464;BME280;65301;46.666;20.110;2024-02-28T13:10:08;101028.81;;;22.45;40.61
76464;BME280;65301;46.666;20.110;2024-02-28T13:13:11;101031.47;;;22.89;40.64
76464;BME280;65301;46.666;20.110;2024-02-28T13:16:17;101027.50;;;22.73;40.58
76464;BME280;65301;46.666;20.110;2024-02-28T13:19:22;101032.28;;;23.00;40.40
76464;BME280;65301;46.666;20.110;2024-02-28T13:22:26;101022.94;;;22.84;40.42
76464;BME280;65301;46.666;20.110;2024-02-28T13:25:28;101018.94;;;23.21;39.58
76464;BME280;65301;46.666;20.110;2024-02-28T13:28:30;101025.69;;;22.91;41.02
76464;BME280;65301;46.666;20.110;2024-02-28T13:31:32;101022.09;;;22.66;40.78
76464;BME280;65301;46.666;20.110;2024-02-28T13:34:34;101020.25;;;22.80;42.65
76464;BME280;65301;46.666;20.110;2024-02-28T13:37:36;101022.78;;;23.24;41.23
76464;BME280;65301;46.666;20.110;2024-02-28T13:40:38;101024.78;;;22.69;40.25
76464;BME280;65301;46.666;20.110;2024-02-28T13:43:40;101019.81;;;22.75;40.52
76464;BME280;65301;46.666;20.110;2024-02-28T13:46:42;101013.38;;;22.93;39.64
76464;BME280;65301;46.666;20.110;2024-02-28T13:49:44;101013.88;;;23.13;39.50
76464;BME280;65301;46.666;20.110;2024-02-28T13:52:46;101011.34;;;23.38;39.62
76464;BME280;65301;46.666;20.110;2024-02-28T13:55:48;101016.03;;;22.83;40.00
76464;BME280;65301;46.666;20.110;2024-02-28T13:58:50;101021.09;;;22.91;39.84
76464;BME280;65301;46.666;20.110;2024-02-28T14:01:57;101016.75;;;22.76;40.44
76464;BME280;65301;46.666;20.110;2024-02-28T14:05:01;101012.75;;;22.56;41.16
76464;BME280;65301;46.666;20.110;2024-02-28T14:08:03;101016.19;;;22.56;40.73
76464;BME280;65301;46.666;20.110;2024-02-28T14:11:06;101020.41;;;22.50;40.97
76464;BME280;65301;46.666;20.110;2024-02-28T14:14:10;101016.97;;;22.53;40.94
76464;BME280;65301;46.666;20.110;2024-02-28T14:17:13;101020.41;;;22.50;41.18
76464;BME280;65301;46.666;20.110;2024-02-28T14:20:15;101015.34;;;22.45;41.55
76464;BME280;65301;46.666;20.110;2024-02-28T14:23:17;101027.03;;;22.16;42.04
76464;BME280;65301;46.666;20.110;2024-02-28T14:26:19;101019.47;;;21.88;41.96
76464;BME280;65301;46.666;20.110;2024-02-28T14:29:21;101022.66;;;21.05;43.00
76464;BME280;65301;46.666;20.110;2024-02-28T14:32:23;101014.13;;;20.73;43.98
76464;BME280;65301;46.666;20.110;2024-02-28T14:35:25;101026.38;;;20.71;44.72
76464;BME280;65301;46.666;20.110;2024-02-28T14:38:26;101027.31;;;20.59;45.65
76464;BME280;65301;46.666;20.110;2024-02-28T14:41:28;101029.25;;;20.58;46.08
76464;BME280;65301;46.666;20.110;2024-02-28T14:44:30;101019.38;;;20.66;44.87
76464;BME280;65301;46.666;20.110;2024-02-28T14:47:32;101025.13;;;20.42;44.37
76464;BME280;65301;46.666;20.110;2024-02-28T14:50:35;101028.72;;;20.27;45.76
76464;BME280;65301;46.666;20.110;2024-02-28T14:53:37;101032.16;;;19.85;46.24
76464;BME280;65301;46.666;20.110;2024-02-28T14:56:39;101025.28;;;19.65;46.19
76464;BME280;65301;46.666;20.110;2024-02-28T14:59:41;101024.56;;;19.49;46.48
76464;BME280;65301;46.666;20.110;2024-02-28T15:02:43;101023.38;;;19.47;47.36
76464;BME280;65301;46.666;20.110;2024-02-28T15:05:46;101023.00;;;19.48;48.13
76464;BME280;65301;46.666;20.110;2024-02-28T15:08:50;101018.56;;;19.37;47.53
76464;BME280;65301;46.666;20.110;2024-02-28T15:11:52;101016.56;;;19.33;48.71
76464;BME280;65301;46.666;20.110;2024-02-28T15:14:54;101019.53;;;19.28;48.86
76464;BME280;65301;46.666;20.110;2024-02-28T15:17:56;101015.22;;;19.24;49.87
76464;BME280;65301;46.666;20.110;2024-02-28T15:20:59;101020.69;;;19.12;50.90
76464;BME280;65301;46.666;20.110;2024-02-28T15:24:03;101014.00;;;19.02;51.32
76464;BME280;65301;46.666;20.110;2024-02-28T15:27:06;101015.31;;;18.93;55.86
76464;BME280;65301;46.666;20.110;2024-02-28T15:30:08;101011.22;;;18.80;54.03
76464;BME280;65301;46.666;20.110;2024-02-28T15:33:12;101009.69;;;18.63;54.32
76464;BME280;65301;46.666;20.110;2024-02-28T15:36:14;101011.56;;;18.47;58.40
76464;BME280;65301;46.666;20.110;2024-02-28T15:39:16;101017.44;;;18.37;56.94
76464;BME280;65301;46.666;20.110;2024-02-28T15:42:18;101020.19;;;18.25;56.00
76464;BME280;65301;46.666;20.110;2024-02-28T15:45:20;101018.16;;;18.06;56.99
76464;BME280;65301;46.666;20.110;2024-02-28T15:48:23;101013.13;;;17.89;57.88